createdAt,value
2022-08-17T00:02:24.121Z,64.30
2022-08-17T00:07:31.090Z,65.80
2022-08-17T00:12:51.134Z,66.50
2022-08-17T00:17:53.937Z,68.10
2022-08-17T00:23:05.139Z,68.90
2022-08-17T00:28:07.817Z,70.40
2022-08-17T00:33:16.343Z,71.80
2022-08-17T00:38:21.299Z,72.10
2022-08-17T00:43:30.316Z,72.50
2022-08-17T00:48:33.857Z,72.20
2022-08-17T00:53:40.177Z,71.10
2022-08-17T00:58:42.934Z,69.60
2022-08-17T01:03:45.779Z,69.10
2022-08-17T01:08:51.894Z,68.90
2022-08-17T01:14:00.472Z,68.80
2022-08-17T01:19:04.471Z,67.90
2022-08-17T01:24:09.006Z,67.40
2022-08-17T01:29:12.621Z,67.50
2022-08-17T01:34:16.792Z,67.10
2022-08-17T01:39:24.190Z,67.40
2022-08-17T01:44:28.305Z,68.50
2022-08-17T01:49:30.954Z,69.50
2022-08-17T01:54:37.100Z,70.20
2022-08-17T01:59:39.961Z,72.40
2022-08-17T02:04:42.614Z,73.30
2022-08-17T02:09:46.638Z,75.00
2022-08-17T02:14:55.374Z,75.10
2022-08-17T02:19:58.036Z,75.90
2022-08-17T02:25:03.072Z,77.00
2022-08-17T02:30:05.890Z,77.40
2022-08-17T02:35:28.558Z,77.70
2022-08-17T02:40:32.864Z,77.10
2022-08-17T02:45:39.582Z,76.60
2022-08-17T02:50:42.272Z,76.30
2022-08-17T02:55:46.311Z,76.40
2022-08-17T03:00:49.012Z,76.30
2022-08-17T03:05:53.060Z,76.50
2022-08-17T03:10:57.143Z,77.50
2022-08-17T03:15:59.862Z,77.60
2022-08-17T03:21:04.261Z,78.00
2022-08-17T03:26:13.487Z,78.30
2022-08-17T03:31:18.547Z,77.80
2022-08-17T03:36:21.234Z,78.10
2022-08-17T03:41:25.238Z,77.50
2022-08-17T03:46:45.341Z,77.80
2022-08-17T03:52:05.431Z,77.80
2022-08-17T03:57:12.208Z,77.30
2022-08-17T04:02:17.338Z,77.60
2022-08-17T04:07:20.310Z,77.70
2022-08-17T04:12:24.978Z,77.00
2022-08-17T04:17:28.733Z,77.50
2022-08-17T04:22:34.242Z,77.20
2022-08-17T04:27:38.516Z,77.30
2022-08-17T04:33:09.820Z,77.40
2022-08-17T04:38:13.827Z,77.50
2022-08-17T04:43:18.601Z,78.00
2022-08-17T04:48:21.770Z,77.60
2022-08-17T04:53:24.429Z,77.60
2022-08-17T04:58:28.589Z,77.70
2022-08-17T05:03:32.008Z,77.20
2022-08-17T05:08:34.662Z,77.50
2022-08-17T05:13:38.666Z,77.40
2022-08-17T05:18:41.392Z,77.20
2022-08-17T05:23:44.382Z,77.60
2022-08-17T05:28:53.240Z,77.90
2022-08-17T05:33:57.167Z,78.20
2022-08-17T05:39:00.112Z,78.80
2022-08-17T05:44:05.518Z,79.00
2022-08-17T05:49:09.226Z,78.90
2022-08-17T05:54:18.354Z,78.80
2022-08-17T05:59:24.947Z,78.80
2022-08-17T06:04:31.882Z,78.60
2022-08-17T06:09:39.518Z,78.50
2022-08-17T06:14:52.398Z,78.50
2022-08-17T06:19:56.843Z,78.80
2022-08-17T06:25:02.016Z,78.90
2022-08-17T06:30:09.277Z,79.10
2022-08-17T06:35:13.485Z,79.10
2022-08-17T06:40:21.006Z,79.90
2022-08-17T06:45:28.715Z,80.30
2022-08-17T06:50:35.988Z,80.80
2022-08-17T06:55:46.510Z,81.70
2022-08-17T07:00:58.113Z,82.20
2022-08-17T07:06:04.160Z,83.80
2022-08-17T07:11:09.511Z,82.60
2022-08-17T07:16:18.346Z,83.10
2022-08-17T07:21:26.876Z,83.60
2022-08-17T07:26:29.612Z,83.30
2022-08-17T07:31:33.633Z,83.20
2022-08-17T07:36:36.357Z,81.40
2022-08-17T07:41:57.167Z,81.40
2022-08-17T07:47:21.210Z,80.70
2022-08-17T07:52:50.947Z,81.30
2022-08-17T07:57:56.003Z,80.50
2022-08-17T08:03:01.595Z,79.30
2022-08-17T08:08:08.860Z,78.90
2022-08-17T08:13:14.322Z,78.40
2022-08-17T08:18:54.689Z,77.20
2022-08-17T08:23:48.216Z,76.60
2022-08-17T08:28:54.565Z,76.20
2022-08-17T08:34:06.153Z,76.30
2022-08-17T08:39:12.907Z,76.50
2022-08-17T08:44:23.792Z,76.30
2022-08-17T08:50:05.791Z,75.50
2022-08-17T08:55:11.239Z,75.00
2022-08-17T09:00:15.874Z,74.80
2022-08-17T09:05:23.663Z,74.70
2022-08-17T09:10:29.340Z,74.00
2022-08-17T09:15:35.567Z,74.00
2022-08-17T09:20:46.651Z,72.60
2022-08-17T09:25:58.167Z,71.80
2022-08-17T09:31:04.142Z,72.50
2022-08-17T09:36:12.944Z,72.80
2022-08-17T09:41:18.957Z,72.20
2022-08-17T09:46:24.674Z,72.10
2022-08-17T09:51:31.842Z,72.30
2022-08-17T09:56:45.988Z,71.60
2022-08-17T10:01:53.740Z,72.20
2022-08-17T10:07:01.851Z,72.30
2022-08-17T10:12:20.301Z,72.50
2022-08-17T10:17:28.851Z,72.40
2022-08-17T10:22:55.437Z,71.50
2022-08-17T10:27:59.543Z,71.60
2022-08-17T10:33:03.627Z,72.00
2022-08-17T10:38:21.555Z,71.50
2022-08-17T10:43:35.905Z,71.80
2022-08-17T10:48:39.566Z,71.40
2022-08-17T10:53:53.662Z,71.30
2022-08-17T10:58:57.276Z,71.20
2022-08-17T11:04:01.283Z,70.70
2022-08-17T11:09:25.371Z,69.20
2022-08-17T11:14:52.590Z,68.00
2022-08-17T11:20:06.870Z,68.20
2022-08-17T11:25:16.012Z,68.50
2022-08-17T11:30:41.582Z,68.20
2022-08-17T11:35:49.677Z,68.00
2022-08-17T11:41:09.422Z,67.20
2022-08-17T11:46:19.355Z,67.20
2022-08-17T11:51:34.563Z,66.60
2022-08-17T11:56:41.101Z,66.40
2022-08-17T12:01:55.769Z,66.30
2022-08-17T12:06:59.903Z,65.70
2022-08-17T12:12:12.500Z,65.50
2022-08-17T12:17:26.505Z,65.20
2022-08-17T12:22:49.439Z,65.10
2022-08-17T12:28:06.256Z,65.20
2022-08-17T12:33:25.075Z,64.80
2022-08-17T12:38:34.397Z,64.20
2022-08-17T12:43:38.462Z,64.00
2022-08-17T12:48:59.825Z,63.70
2022-08-17T12:54:03.019Z,63.80
2022-08-17T12:59:07.059Z,63.90
2022-08-17T13:04:14.043Z,64.00
2022-08-17T13:09:19.818Z,63.60
2022-08-17T13:14:23.919Z,63.40
2022-08-17T13:19:39.670Z,63.60
2022-08-17T13:24:52.911Z,63.70
2022-08-17T13:29:59.588Z,63.20
2022-08-17T13:35:16.257Z,63.30
2022-08-17T13:40:29.031Z,63.40
2022-08-17T13:45:39.121Z,63.30
2022-08-17T13:50:43.591Z,63.40
2022-08-17T13:55:51.059Z,63.40
2022-08-17T14:00:56.166Z,63.40
2022-08-17T14:05:58.869Z,63.50
2022-08-17T14:11:02.202Z,63.00
2022-08-17T14:16:06.507Z,63.20
2022-08-17T14:21:11.822Z,63.30
2022-08-17T14:26:14.627Z,63.10
2022-08-17T14:31:19.178Z,62.90
2022-08-17T14:36:21.878Z,62.80
2022-08-17T14:41:25.082Z,62.90
2022-08-17T14:46:29.365Z,62.80
2022-08-17T14:51:32.042Z,62.90
2022-08-17T14:56:38.033Z,63.00
2022-08-17T15:01:42.299Z,63.00
2022-08-17T15:06:45.713Z,62.90
2022-08-17T15:11:48.391Z,62.60
2022-08-17T15:16:52.413Z,62.90
2022-08-17T15:21:55.151Z,63.10
2022-08-17T15:26:57.796Z,62.90
2022-08-17T15:32:01.932Z,63.00
2022-08-17T15:37:04.650Z,63.20
2022-08-17T15:42:07.771Z,63.20
2022-08-17T15:47:11.825Z,63.00
2022-08-17T15:52:16.649Z,63.30
2022-08-17T15:57:19.323Z,63.30
2022-08-17T16:03:14.735Z,64.30
2022-08-17T16:07:47.895Z,65.30
2022-08-17T16:12:50.953Z,65.80
2022-08-17T16:17:57.891Z,66.00
2022-08-17T16:23:00.547Z,66.30
2022-08-17T16:28:03.435Z,66.00
2022-08-17T16:33:07.906Z,66.30
2022-08-17T16:38:12.343Z,66.00
2022-08-17T16:43:16.548Z,66.40
2022-08-17T16:48:20.580Z,66.10
2022-08-17T16:53:23.234Z,66.20
2022-08-17T16:58:25.895Z,65.90
2022-08-17T17:03:30.398Z,65.90
2022-08-17T17:08:37.499Z,65.70
2022-08-17T17:13:45.519Z,65.70
2022-08-17T17:18:58.082Z,66.10
2022-08-17T17:24:04.343Z,66.10
2022-08-17T17:29:14.134Z,65.50
2022-08-17T17:34:18.393Z,66.00
2022-08-17T17:39:24.186Z,65.90
2022-08-17T17:44:28.651Z,66.00
2022-08-17T17:49:35.290Z,66.30
2022-08-17T17:54:43.736Z,66.50
2022-08-17T17:59:50.325Z,66.20
2022-08-17T18:04:59.661Z,66.60
2022-08-17T18:10:19.626Z,66.50
2022-08-17T18:15:34.746Z,66.70
2022-08-17T18:20:53.485Z,66.80
2022-08-17T18:25:59.410Z,66.80
2022-08-17T18:31:09.822Z,66.80
2022-08-17T18:36:14.469Z,66.70
2022-08-17T18:41:19.299Z,66.80
2022-08-17T18:46:29.029Z,66.80
2022-08-17T18:51:41.873Z,67.00
2022-08-17T18:56:49.862Z,67.20
2022-08-17T19:02:05.099Z,67.10
2022-08-17T19:07:24.212Z,67.20
2022-08-17T19:12:29.942Z,67.30
2022-08-17T19:17:36.847Z,67.20
2022-08-17T19:22:46.739Z,67.20
2022-08-17T19:27:57.427Z,67.60
2022-08-17T19:33:01.863Z,67.70
2022-08-17T19:38:12.830Z,67.40
2022-08-17T19:43:19.875Z,67.40
2022-08-17T19:48:28.718Z,67.50
2022-08-17T19:54:01.815Z,67.60
2022-08-17T19:59:02.005Z,67.40
2022-08-17T20:04:07.966Z,67.40
2022-08-17T20:09:16.794Z,67.50
2022-08-17T20:14:21.392Z,67.60
2022-08-17T20:19:25.215Z,67.80
2022-08-17T20:24:33.357Z,67.50
2022-08-17T20:29:56.934Z,67.50
2022-08-17T20:35:17.383Z,67.50
2022-08-17T20:40:26.867Z,68.70
2022-08-17T20:45:47.055Z,67.80
2022-08-17T20:50:52.369Z,67.70
2022-08-17T20:55:56.385Z,67.60
2022-08-17T21:01:11.949Z,67.70
2022-08-17T21:06:17.431Z,67.50
2022-08-17T21:11:56.918Z,68.70
2022-08-17T21:17:17.056Z,68.50
2022-08-17T21:22:25.617Z,68.70
2022-08-17T21:27:35.440Z,69.10
2022-08-17T21:32:40.477Z,68.60
2022-08-17T21:37:46.545Z,67.40
2022-08-17T21:42:51.514Z,68.40
2022-08-17T21:48:08.098Z,68.30
2022-08-17T21:53:14.766Z,67.50
2022-08-17T21:58:28.054Z,67.40
2022-08-17T22:03:32.550Z,68.40
2022-08-17T22:08:36.886Z,67.10
2022-08-17T22:13:40.915Z,68.30
2022-08-17T22:18:44.617Z,68.30
2022-08-17T22:24:05.837Z,68.30
2022-08-17T22:29:30.330Z,67.90
2022-08-17T22:34:32.996Z,68.30
2022-08-17T22:39:41.881Z,68.30
2022-08-17T22:44:49.402Z,68.10
2022-08-17T22:49:56.356Z,68.40
2022-08-17T22:55:21.962Z,68.20
2022-08-17T23:00:37.348Z,68.40
2022-08-17T23:05:41.947Z,68.50
2022-08-17T23:10:45.218Z,68.30
2022-08-17T23:15:49.929Z,68.50
2022-08-17T23:20:52.617Z,68.70
2022-08-17T23:25:55.457Z,68.60
2022-08-17T23:30:59.490Z,69.00
2022-08-17T23:36:02.228Z,68.60
2022-08-17T23:41:08.754Z,69.00
2022-08-17T23:46:12.776Z,69.10
2022-08-17T23:51:18.860Z,69.10
2022-08-17T23:56:24.405Z,69.20
